createdAt,value
2023-11-01T00:00:45.794Z,9.13
2023-11-01T00:01:45.443Z,9.13
2023-11-01T00:02:46.286Z,9.08
2023-11-01T00:03:45.631Z,9.13
2023-11-01T00:04:45.670Z,9.13
2023-11-01T00:05:45.738Z,9.08
2023-11-01T00:06:45.826Z,9.18
2023-11-01T00:07:45.888Z,9.13
2023-11-01T00:08:46.029Z,9.13
2023-11-01T00:09:46.043Z,9.13
2023-11-01T00:10:46.113Z,9.08
2023-11-01T00:11:46.223Z,9.13
2023-11-01T00:12:46.262Z,9.13
2023-11-01T00:13:46.325Z,9.13
2023-11-01T00:14:46.411Z,9.13
2023-11-01T00:15:46.466Z,9.29
2023-11-01T00:16:46.616Z,9.29
2023-11-01T00:17:46.674Z,9.29
2023-11-01T00:18:46.714Z,9.08
2023-11-01T00:19:46.788Z,9.13
2023-11-01T00:20:46.917Z,9.13
2023-11-01T00:21:46.930Z,9.13
2023-11-01T00:22:46.984Z,9.13
2023-11-01T00:23:47.832Z,9.08
2023-11-01T00:24:47.151Z,9.13
2023-11-01T00:25:47.215Z,9.29
2023-11-01T00:26:48.190Z,9.13
2023-11-01T00:27:47.390Z,9.13
2023-11-01T00:28:47.451Z,9.13
2023-11-01T00:29:47.515Z,9.13
2023-11-01T00:30:47.597Z,9.13
2023-11-01T00:31:47.749Z,9.18
2023-11-01T00:32:47.874Z,9.18
2023-11-01T00:33:47.806Z,9.13
2023-11-01T00:34:47.898Z,9.13
2023-11-01T00:35:47.961Z,9.29
2023-11-01T00:36:48.053Z,9.13
2023-11-01T00:37:48.106Z,9.13
2023-11-01T00:38:48.179Z,9.13
2023-11-01T00:39:48.239Z,9.35
2023-11-01T00:40:48.345Z,9.13
2023-11-01T00:41:48.388Z,9.29
2023-11-01T00:42:48.469Z,9.35
2023-11-01T00:43:48.526Z,9.29
2023-11-01T00:44:48.602Z,9.08
2023-11-01T00:45:49.184Z,9.24
2023-11-01T00:46:48.809Z,9.35
2023-11-01T00:47:48.984Z,9.08
2023-11-01T00:48:49.901Z,9.29
2023-11-01T00:49:49.009Z,9.35
2023-11-01T00:50:49.085Z,9.13
2023-11-01T00:51:49.170Z,9.24
2023-11-01T00:52:49.296Z,9.29
2023-11-01T00:53:49.318Z,9.29
2023-11-01T00:54:49.407Z,9.29
2023-11-01T00:55:49.505Z,9.29
2023-11-01T00:56:49.580Z,9.29
2023-11-01T00:57:50.291Z,9.35
2023-11-01T00:58:49.751Z,9.29
2023-11-01T00:59:49.822Z,9.29
2023-11-01T01:00:49.970Z,9.29
2023-11-01T01:01:50.012Z,9.29
2023-11-01T01:02:50.384Z,9.35
2023-11-01T01:03:50.224Z,9.29
2023-11-01T01:04:50.797Z,9.29
2023-11-01T01:05:50.789Z,9.29
2023-11-01T01:06:50.375Z,9.29
2023-11-01T01:07:50.436Z,9.29
2023-11-01T01:08:50.616Z,9.35
2023-11-01T01:09:50.600Z,9.29
2023-11-01T01:10:50.690Z,9.35
2023-11-01T01:11:51.301Z,9.29
2023-11-01T01:12:50.837Z,9.29
2023-11-01T01:13:50.963Z,9.29
2023-11-01T01:14:51.030Z,9.29
2023-11-01T01:15:51.119Z,9.29
2023-11-01T01:16:51.290Z,9.35
2023-11-01T01:17:51.424Z,9.35
2023-11-01T01:18:52.194Z,9.18
2023-11-01T01:19:51.457Z,9.29
2023-11-01T01:20:51.568Z,9.08
2023-11-01T01:21:51.593Z,9.29
2023-11-01T01:22:51.810Z,9.29
2023-11-01T01:23:51.799Z,9.29
2023-11-01T01:24:51.855Z,9.35
2023-11-01T01:25:51.921Z,9.13
2023-11-01T01:26:51.990Z,9.29
2023-11-01T01:27:52.071Z,9.29
2023-11-01T01:28:52.186Z,9.29
2023-11-01T01:29:52.245Z,9.29
2023-11-01T01:30:52.910Z,9.29
2023-11-01T01:31:52.395Z,9.29
2023-11-01T01:32:52.859Z,9.29
2023-11-01T01:33:52.550Z,9.29
2023-11-01T01:34:52.628Z,9.35
2023-11-01T01:35:52.699Z,9.29
2023-11-01T01:36:52.774Z,9.35
2023-11-01T01:37:52.844Z,9.35
2023-11-01T01:38:53.697Z,9.35
2023-11-01T01:39:52.997Z,9.29
2023-11-01T01:40:53.070Z,9.35
2023-11-01T01:41:53.143Z,9.29
2023-11-01T01:42:53.309Z,9.35
2023-11-01T01:43:53.366Z,9.29
2023-11-01T01:44:53.914Z,9.35
2023-11-01T01:45:53.443Z,9.35
2023-11-01T01:46:53.500Z,9.29
2023-11-01T01:47:53.598Z,9.29
2023-11-01T01:48:53.625Z,9.13
2023-11-01T01:49:53.707Z,9.29
2023-11-01T01:50:53.773Z,9.29
2023-11-01T01:51:54.820Z,9.29
2023-11-01T01:52:53.924Z,9.18
2023-11-01T01:53:54.000Z,9.29
2023-11-01T01:54:54.084Z,9.35
2023-11-01T01:55:54.163Z,9.13
2023-11-01T01:56:54.241Z,9.35
2023-11-01T01:57:54.318Z,9.29
2023-11-01T01:58:54.444Z,9.24
2023-11-01T01:59:54.503Z,9.13
2023-11-01T02:00:54.689Z,9.35
2023-11-01T02:01:54.683Z,9.08
2023-11-01T02:02:54.917Z,9.29
2023-11-01T02:03:54.827Z,9.29
2023-11-01T02:04:54.900Z,9.13
2023-11-01T02:05:54.973Z,9.29
2023-11-01T02:06:55.036Z,9.35
2023-11-01T02:07:55.123Z,9.18
2023-11-01T02:08:55.187Z,9.13
2023-11-01T02:09:55.265Z,9.35
2023-11-01T02:10:55.329Z,9.29
2023-11-01T02:11:55.409Z,9.29
2023-11-01T02:12:55.480Z,9.29
2023-11-01T02:13:55.556Z,9.29
2023-11-01T02:14:55.634Z,9.29
2023-11-01T02:15:55.815Z,9.29
2023-11-01T02:16:55.794Z,9.29
2023-11-01T02:17:55.942Z,9.35
2023-11-01T02:18:55.932Z,9.29
2023-11-01T02:19:56.920Z,9.29
2023-11-01T02:20:56.141Z,9.29
2023-11-01T02:21:56.210Z,9.24
2023-11-01T02:22:56.285Z,9.45
2023-11-01T02:23:56.380Z,9.29
2023-11-01T02:24:56.467Z,9.29
2023-11-01T02:25:56.570Z,9.29
2023-11-01T02:26:56.612Z,9.35
2023-11-01T02:27:57.262Z,9.29
2023-11-01T02:28:56.769Z,9.29
2023-11-01T02:29:56.871Z,9.35
2023-11-01T02:30:56.970Z,9.29
2023-11-01T02:31:57.044Z,9.29
2023-11-01T02:32:57.150Z,9.29
2023-11-01T02:33:57.196Z,9.29
2023-11-01T02:34:57.248Z,9.29
2023-11-01T02:35:57.351Z,9.29
2023-11-01T02:36:57.410Z,9.29
2023-11-01T02:37:57.489Z,9.35
2023-11-01T02:38:57.575Z,9.35
2023-11-01T02:39:57.665Z,9.29
2023-11-01T02:40:57.732Z,9.29
2023-11-01T02:41:57.860Z,9.29
2023-11-01T02:42:58.003Z,9.29
2023-11-01T02:43:58.022Z,9.35
2023-11-01T02:44:58.094Z,9.29
2023-11-01T02:45:58.196Z,9.29
2023-11-01T02:46:58.236Z,9.35
2023-11-01T02:47:58.399Z,9.29
2023-11-01T02:48:58.404Z,9.29
2023-11-01T02:49:58.507Z,9.29
2023-11-01T02:50:58.544Z,9.29
2023-11-01T02:51:58.634Z,9.35
2023-11-01T02:52:58.709Z,9.29
2023-11-01T02:53:58.849Z,9.29
2023-11-01T02:54:58.864Z,9.35
2023-11-01T02:55:58.937Z,9.29
2023-11-01T02:56:58.999Z,9.29
2023-11-01T02:57:59.389Z,9.29
2023-11-01T02:58:59.204Z,9.29
2023-11-01T02:59:59.231Z,9.29
2023-11-01T03:00:59.320Z,9.29
2023-11-01T03:01:59.434Z,9.29
2023-11-01T03:02:59.613Z,9.29
2023-11-01T03:03:59.576Z,9.35
2023-11-01T03:04:59.628Z,9.29
2023-11-01T03:05:59.704Z,9.35
2023-11-01T03:06:59.768Z,9.35
2023-11-01T03:07:59.844Z,9.35
2023-11-01T03:08:59.924Z,9.29
2023-11-01T03:10:00.723Z,9.29
2023-11-01T03:11:00.114Z,9.35
2023-11-01T03:12:00.176Z,9.40
2023-11-01T03:13:00.267Z,9.35
2023-11-01T03:14:00.318Z,9.29
2023-11-01T03:15:00.396Z,9.29
2023-11-01T03:16:00.496Z,9.29
2023-11-01T03:17:00.543Z,9.35
2023-11-01T03:18:00.686Z,9.40
2023-11-01T03:19:00.667Z,9.29
2023-11-01T03:20:01.463Z,9.29
2023-11-01T03:21:01.712Z,9.29
2023-11-01T03:22:00.915Z,9.24
2023-11-01T03:23:01.006Z,9.35
2023-11-01T03:24:01.078Z,9.29
2023-11-01T03:25:01.149Z,9.29
2023-11-01T03:26:01.217Z,9.29
2023-11-01T03:27:01.293Z,9.29
2023-11-01T03:28:01.385Z,9.29
2023-11-01T03:29:01.935Z,9.35
2023-11-01T03:30:01.522Z,9.29
2023-11-01T03:31:01.642Z,9.29
2023-11-01T03:32:01.674Z,9.29
2023-11-01T03:33:01.811Z,9.29
2023-11-01T03:34:01.825Z,9.35
2023-11-01T03:35:01.926Z,9.35
2023-11-01T03:36:01.981Z,9.35
2023-11-01T03:37:02.053Z,9.29
2023-11-01T03:38:02.138Z,9.35
2023-11-01T03:39:02.214Z,9.29
2023-11-01T03:40:02.317Z,9.35
2023-11-01T03:41:02.343Z,9.35
2023-11-01T03:42:02.413Z,9.29
2023-11-01T03:43:02.494Z,9.29
2023-11-01T03:44:02.568Z,9.29
2023-11-01T03:45:02.696Z,9.29
2023-11-01T03:46:02.732Z,9.29
2023-11-01T03:47:02.798Z,9.35
2023-11-01T03:48:02.955Z,9.29
2023-11-01T03:49:02.923Z,9.35
2023-11-01T03:50:03.001Z,9.29
2023-11-01T03:51:03.061Z,9.29
2023-11-01T03:52:03.224Z,9.29
2023-11-01T03:53:03.223Z,9.29
2023-11-01T03:54:03.312Z,9.35
2023-11-01T03:55:03.382Z,9.35
2023-11-01T03:56:03.450Z,9.35
2023-11-01T03:57:03.533Z,9.40
2023-11-01T03:58:03.622Z,9.35
2023-11-01T03:59:03.751Z,9.29
2023-11-01T04:00:03.824Z,9.29
2023-11-01T04:01:03.942Z,9.35
2023-11-01T04:02:03.958Z,9.29
2023-11-01T04:03:04.147Z,9.29
2023-11-01T04:04:04.185Z,9.29
2023-11-01T04:05:04.165Z,9.29
2023-11-01T04:06:04.276Z,9.29
2023-11-01T04:07:04.401Z,9.29
2023-11-01T04:08:04.446Z,9.35
2023-11-01T04:09:04.517Z,9.29
2023-11-01T04:10:04.595Z,9.35
2023-11-01T04:11:04.712Z,9.35
2023-11-01T04:12:04.767Z,9.29
2023-11-01T04:13:04.855Z,9.24
2023-11-01T04:14:04.925Z,9.29
2023-11-01T04:15:04.993Z,9.29
2023-11-01T04:16:05.830Z,9.35
2023-11-01T04:17:05.155Z,9.29
2023-11-01T04:18:05.292Z,9.29
2023-11-01T04:19:05.348Z,9.29
2023-11-01T04:20:05.419Z,9.29
2023-11-01T04:21:05.501Z,9.29
2023-11-01T04:22:05.594Z,9.29
2023-11-01T04:23:05.672Z,9.29
2023-11-01T04:24:05.752Z,9.29
2023-11-01T04:25:05.845Z,9.35
2023-11-01T04:26:05.925Z,9.35
2023-11-01T04:27:05.991Z,9.35
2023-11-01T04:28:06.072Z,9.35
2023-11-01T04:29:06.199Z,9.29
2023-11-01T04:30:06.207Z,9.29
2023-11-01T04:31:06.287Z,9.35
2023-11-01T04:32:06.363Z,9.29
2023-11-01T04:33:06.493Z,9.35
2023-11-01T04:34:06.554Z,9.29
2023-11-01T04:35:06.612Z,9.29
2023-11-01T04:36:06.650Z,9.35
2023-11-01T04:37:06.718Z,9.29
2023-11-01T04:38:06.797Z,9.29
2023-11-01T04:39:06.910Z,9.29
2023-11-01T04:40:06.982Z,9.29
2023-11-01T04:41:07.045Z,9.29
2023-11-01T04:42:07.116Z,9.29
2023-11-01T04:43:07.186Z,9.29
2023-11-01T04:44:07.257Z,9.35
2023-11-01T04:45:07.325Z,9.35
2023-11-01T04:46:07.566Z,9.35
2023-11-01T04:47:07.512Z,9.29
2023-11-01T04:48:07.702Z,9.29
2023-11-01T04:49:07.662Z,9.29
2023-11-01T04:50:07.759Z,9.35
2023-11-01T04:51:07.809Z,9.29
2023-11-01T04:52:07.882Z,9.29
2023-11-01T04:53:07.970Z,9.29
2023-11-01T04:54:08.151Z,9.29
2023-11-01T04:55:08.147Z,9.29
2023-11-01T04:56:08.223Z,9.35
2023-11-01T04:57:08.292Z,9.29
2023-11-01T04:58:08.372Z,9.29
2023-11-01T04:59:08.431Z,9.35
2023-11-01T05:00:08.503Z,9.35
2023-11-01T05:01:08.617Z,9.29
2023-11-01T05:02:11.714Z,9.29
2023-11-01T05:03:08.954Z,9.35
2023-11-01T05:04:08.872Z,9.29
2023-11-01T05:05:08.855Z,9.35
2023-11-01T05:06:08.965Z,9.35
2023-11-01T05:07:09.738Z,9.29
2023-11-01T05:08:09.122Z,9.29
2023-11-01T05:09:09.189Z,9.29
2023-11-01T05:10:09.233Z,9.29
2023-11-01T05:11:09.301Z,9.35
2023-11-01T05:12:09.375Z,9.29
2023-11-01T05:13:09.526Z,9.29
2023-11-01T05:14:09.525Z,9.29
2023-11-01T05:15:09.612Z,9.35
2023-11-01T05:16:09.695Z,9.29
2023-11-01T05:17:09.777Z,9.29
2023-11-01T05:18:10.044Z,9.29
2023-11-01T05:19:10.924Z,9.35
2023-11-01T05:20:10.016Z,9.29
2023-11-01T05:21:10.082Z,9.35
2023-11-01T05:22:10.154Z,9.35
2023-11-01T05:23:10.370Z,9.29
2023-11-01T05:24:10.343Z,9.35
2023-11-01T05:25:10.403Z,9.35
2023-11-01T05:26:10.474Z,9.29
2023-11-01T05:27:10.608Z,9.29
2023-11-01T05:28:10.654Z,9.35
2023-11-01T05:29:11.417Z,9.29
2023-11-01T05:30:10.879Z,9.29
2023-11-01T05:31:10.943Z,9.29
2023-11-01T05:32:10.964Z,9.35
2023-11-01T05:33:11.125Z,9.29
2023-11-01T05:34:11.155Z,9.29
2023-11-01T05:35:11.215Z,9.29
2023-11-01T05:36:11.288Z,9.29
2023-11-01T05:37:11.400Z,9.35
2023-11-01T05:38:11.443Z,9.29
2023-11-01T05:39:11.535Z,9.29
2023-11-01T05:40:11.606Z,9.24
2023-11-01T05:41:11.681Z,9.29
2023-11-01T05:42:11.757Z,9.29
2023-11-01T05:43:11.871Z,9.35
2023-11-01T05:44:11.918Z,9.29
2023-11-01T05:45:11.993Z,9.29
2023-11-01T05:46:12.113Z,9.29
2023-11-01T05:47:12.165Z,9.29
2023-11-01T05:48:12.347Z,9.29
2023-11-01T05:49:12.331Z,9.29
2023-11-01T05:50:12.352Z,9.29
2023-11-01T05:51:12.454Z,9.35
2023-11-01T05:52:12.565Z,9.29
2023-11-01T05:53:12.605Z,9.29
2023-11-01T05:54:12.684Z,9.35
2023-11-01T05:55:18.476Z,9.29
2023-11-01T05:56:12.857Z,9.29
2023-11-01T05:57:12.937Z,9.29
2023-11-01T05:58:13.043Z,9.29
2023-11-01T05:59:13.746Z,9.29
2023-11-01T06:00:13.129Z,9.29
2023-11-01T06:01:13.859Z,9.35
2023-11-01T06:02:13.319Z,9.51
2023-11-01T06:03:13.523Z,9.51
2023-11-01T06:04:14.065Z,9.51
2023-11-01T06:05:13.578Z,9.51
2023-11-01T06:06:13.578Z,9.29
2023-11-01T06:07:13.661Z,9.51
2023-11-01T06:08:13.749Z,9.35
2023-11-01T06:09:13.808Z,9.51
2023-11-01T06:10:13.889Z,9.29
2023-11-01T06:11:13.999Z,9.29
2023-11-01T06:12:14.116Z,9.56
2023-11-01T06:13:14.143Z,9.51
2023-11-01T06:14:14.207Z,9.29
2023-11-01T06:15:14.326Z,9.51
2023-11-01T06:16:14.365Z,9.51
2023-11-01T06:17:14.440Z,9.29
2023-11-01T06:18:14.532Z,9.51
2023-11-01T06:19:14.587Z,9.45
2023-11-01T06:20:14.729Z,9.45
2023-11-01T06:21:14.755Z,9.45
2023-11-01T06:22:14.830Z,9.45
2023-11-01T06:23:14.925Z,9.51
2023-11-01T06:24:15.780Z,9.51
2023-11-01T06:25:15.069Z,9.51
2023-11-01T06:26:15.177Z,9.51
2023-11-01T06:27:15.252Z,9.51
2023-11-01T06:28:15.331Z,9.51
2023-11-01T06:29:15.419Z,9.51
2023-11-01T06:30:15.530Z,9.51
2023-11-01T06:31:15.649Z,9.45
2023-11-01T06:32:15.637Z,9.29
2023-11-01T06:33:15.967Z,9.51
2023-11-01T06:34:15.870Z,9.56
2023-11-01T06:35:15.899Z,9.29
2023-11-01T06:36:15.986Z,9.45
2023-11-01T06:37:16.062Z,9.29
2023-11-01T06:38:16.136Z,9.29
2023-11-01T06:39:16.231Z,9.51
2023-11-01T06:40:16.331Z,9.51
2023-11-01T06:41:16.389Z,9.51
2023-11-01T06:42:16.455Z,9.29
2023-11-01T06:43:17.378Z,9.45
2023-11-01T06:44:16.583Z,9.51
2023-11-01T06:45:16.651Z,9.51
2023-11-01T06:46:16.746Z,9.51
2023-11-01T06:47:16.819Z,9.45
2023-11-01T06:48:16.938Z,9.51
2023-11-01T06:49:16.987Z,9.56
2023-11-01T06:50:17.038Z,9.51
2023-11-01T06:51:17.164Z,9.56
2023-11-01T06:52:17.203Z,9.51
2023-11-01T06:53:17.309Z,9.51
2023-11-01T06:54:17.379Z,9.51
2023-11-01T06:55:17.550Z,9.51
2023-11-01T06:56:18.183Z,9.45
2023-11-01T06:57:17.629Z,9.51
2023-11-01T06:58:17.678Z,9.51
2023-11-01T06:59:17.804Z,9.51
2023-11-01T07:00:17.841Z,9.51
2023-11-01T07:01:17.983Z,9.51
2023-11-01T07:02:17.979Z,9.51
2023-11-01T07:03:18.162Z,9.45
2023-11-01T07:04:18.204Z,9.29
2023-11-01T07:05:18.249Z,9.51
2023-11-01T07:06:18.334Z,9.35
2023-11-01T07:07:20.715Z,9.29
2023-11-01T07:08:18.532Z,9.29
2023-11-01T07:09:18.598Z,9.29
2023-11-01T07:10:18.681Z,9.35
2023-11-01T07:11:19.305Z,9.29
2023-11-01T07:12:18.820Z,9.29
2023-11-01T07:13:18.912Z,9.51
2023-11-01T07:14:19.138Z,9.29
2023-11-01T07:15:19.175Z,9.35
2023-11-01T07:16:19.185Z,9.56
2023-11-01T07:17:19.251Z,9.29
2023-11-01T07:18:19.424Z,9.51
2023-11-01T07:19:19.509Z,9.29
2023-11-01T07:20:19.535Z,9.29
2023-11-01T07:21:19.593Z,9.56
2023-11-01T07:22:19.694Z,9.29
2023-11-01T07:23:19.768Z,9.29
2023-11-01T07:24:19.786Z,9.45
2023-11-01T07:25:19.880Z,9.56
2023-11-01T07:26:19.968Z,9.29
2023-11-01T07:27:20.044Z,9.51
2023-11-01T07:28:20.161Z,9.56
2023-11-01T07:29:20.231Z,9.51
2023-11-01T07:30:20.280Z,9.29
2023-11-01T07:31:20.411Z,9.29
2023-11-01T07:32:22.713Z,9.29
2023-11-01T07:33:20.676Z,9.29
2023-11-01T07:34:20.610Z,9.35
2023-11-01T07:35:20.716Z,9.29
2023-11-01T07:36:20.753Z,9.29
2023-11-01T07:37:20.798Z,9.40
2023-11-01T07:38:20.907Z,9.35
2023-11-01T07:39:20.950Z,9.29
2023-11-01T07:40:21.035Z,9.35
2023-11-01T07:41:21.210Z,9.51
2023-11-01T07:42:21.201Z,9.35
2023-11-01T07:43:21.335Z,9.51
2023-11-01T07:44:21.379Z,9.45
2023-11-01T07:45:21.476Z,9.29
2023-11-01T07:46:21.640Z,9.51
2023-11-01T07:47:21.664Z,9.35
2023-11-01T07:48:21.797Z,9.45
2023-11-01T07:49:21.819Z,9.56
2023-11-01T07:50:21.947Z,9.56
2023-11-01T07:51:21.992Z,9.45
2023-11-01T07:52:22.051Z,9.51
2023-11-01T07:53:22.238Z,9.45
2023-11-01T07:54:22.298Z,9.51
2023-11-01T07:55:22.996Z,9.51
2023-11-01T07:56:22.497Z,9.45
2023-11-01T07:57:22.461Z,9.51
2023-11-01T07:58:22.518Z,9.51
2023-11-01T07:59:22.618Z,9.51
2023-11-01T08:01:46.595Z,9.51
2023-11-01T08:02:47.714Z,9.51
2023-11-01T08:04:02.646Z,9.51
2023-11-01T08:04:53.704Z,9.51
2023-11-01T08:05:47.898Z,9.45
2023-11-01T08:07:43.372Z,9.51
2023-11-01T08:08:44.619Z,9.56
2023-11-01T08:09:44.592Z,9.51
2023-11-01T08:10:44.693Z,9.56
2023-11-01T08:11:44.744Z,9.51
2023-11-01T08:12:44.798Z,9.56
2023-11-01T08:13:44.859Z,9.56
2023-11-01T08:14:44.975Z,9.51
2023-11-01T08:15:45.007Z,9.51
2023-11-01T08:16:45.167Z,9.51
2023-11-01T08:17:45.271Z,9.40
2023-11-01T08:18:45.252Z,9.51
2023-11-01T08:19:45.346Z,9.51
2023-11-01T08:20:45.471Z,9.51
2023-11-01T08:21:45.522Z,9.51
2023-11-01T08:22:45.565Z,9.51
2023-11-01T08:23:45.796Z,9.51
2023-11-01T08:24:45.741Z,9.45
2023-11-01T08:25:45.839Z,9.51
2023-11-01T08:26:45.941Z,9.56
2023-11-01T08:27:46.019Z,9.51
2023-11-01T08:28:46.041Z,9.51
2023-11-01T08:29:46.911Z,9.51
2023-11-01T08:30:46.206Z,9.51
2023-11-01T08:31:46.301Z,9.45
2023-11-01T08:32:46.478Z,9.51
2023-11-01T08:33:46.589Z,9.56
2023-11-01T08:34:46.563Z,9.56
2023-11-01T08:35:46.643Z,9.56
2023-11-01T08:36:46.696Z,9.45
2023-11-01T08:37:46.797Z,9.51
2023-11-01T08:38:46.897Z,9.51
2023-11-01T08:39:46.990Z,9.45
2023-11-01T08:40:47.110Z,9.51
2023-11-01T08:41:47.228Z,9.51
2023-11-01T08:42:47.211Z,9.51
2023-11-01T08:43:47.375Z,9.51
2023-11-01T08:44:47.420Z,9.51
2023-11-01T08:45:47.485Z,9.51
2023-11-01T08:46:47.506Z,9.51
2023-11-01T08:47:47.634Z,9.51
2023-11-01T08:48:47.625Z,9.51
2023-11-01T08:49:57.259Z,9.45
2023-11-01T08:50:47.815Z,9.51
2023-11-01T08:51:47.900Z,9.56
2023-11-01T08:52:47.962Z,9.51
2023-11-01T08:53:48.085Z,9.51
2023-11-01T08:54:48.145Z,9.51
2023-11-01T08:55:48.199Z,9.45
2023-11-01T08:56:48.316Z,9.51
2023-11-01T08:57:48.353Z,9.51
2023-11-01T08:58:48.418Z,9.51
2023-11-01T08:59:55.883Z,9.51
2023-11-01T09:00:51.837Z,9.51
2023-11-01T09:01:48.928Z,9.51
2023-11-01T09:02:48.792Z,9.51
2023-11-01T09:03:48.902Z,9.51
2023-11-01T09:04:48.891Z,9.51
2023-11-01T09:05:49.933Z,9.51
2023-11-01T09:06:50.425Z,9.51
2023-11-01T09:07:51.443Z,9.51
2023-11-01T09:08:49.366Z,9.45
2023-11-01T09:09:49.395Z,9.51
2023-11-01T09:10:52.106Z,9.51
2023-11-01T09:11:49.771Z,9.56
2023-11-01T09:12:49.628Z,9.51
2023-11-01T09:13:49.658Z,9.51
2023-11-01T09:14:51.005Z,9.51
2023-11-01T09:15:49.794Z,9.56
2023-11-01T09:16:49.901Z,9.51
2023-11-01T09:17:50.004Z,9.51
2023-11-01T09:18:50.024Z,9.51
2023-11-01T09:19:50.130Z,9.51
2023-11-01T09:20:51.163Z,9.45
2023-11-01T09:21:50.315Z,9.45
2023-11-01T09:22:50.374Z,9.56
2023-11-01T09:23:50.498Z,9.51
2023-11-01T09:24:51.395Z,9.56
2023-11-01T09:25:51.597Z,9.45
2023-11-01T09:26:50.752Z,9.51
2023-11-01T09:27:50.792Z,9.51
2023-11-01T09:28:50.894Z,9.51
2023-11-01T09:29:50.996Z,9.45
2023-11-01T09:30:51.057Z,9.51
2023-11-01T09:31:51.173Z,9.51
2023-11-01T09:32:52.215Z,9.51
2023-11-01T09:33:51.419Z,9.51
2023-11-01T09:34:53.417Z,9.51
2023-11-01T09:35:51.596Z,9.51
2023-11-01T09:36:51.663Z,9.45
2023-11-01T09:37:51.793Z,9.56
2023-11-01T09:38:51.830Z,9.56
2023-11-01T09:39:51.866Z,9.51
2023-11-01T09:40:51.920Z,9.56
2023-11-01T09:41:52.095Z,9.51
2023-11-01T09:42:52.130Z,9.61
2023-11-01T09:43:52.159Z,9.56
2023-11-01T09:44:52.378Z,9.51
2023-11-01T09:45:52.289Z,9.51
2023-11-01T09:46:52.447Z,9.51
2023-11-01T09:47:52.674Z,9.45
2023-11-01T09:48:52.581Z,9.51
2023-11-01T09:49:52.720Z,9.51
2023-11-01T09:50:52.706Z,9.51
2023-11-01T09:51:53.031Z,9.45
2023-11-01T09:52:52.809Z,9.56
2023-11-01T09:53:52.952Z,9.51
2023-11-01T09:54:53.557Z,9.67
2023-11-01T09:55:53.929Z,9.51
2023-11-01T09:56:53.274Z,9.51
2023-11-01T09:57:53.245Z,9.56
2023-11-01T09:58:53.320Z,9.51
2023-11-01T09:59:53.472Z,9.51
2023-11-01T10:00:54.099Z,9.56
2023-11-01T10:01:54.165Z,9.51
2023-11-01T10:02:54.580Z,9.51
2023-11-01T10:03:53.709Z,9.51
2023-11-01T10:04:53.792Z,9.51
2023-11-01T10:05:53.832Z,9.51
2023-11-01T10:06:54.690Z,9.51
2023-11-01T10:07:54.276Z,9.51
2023-11-01T10:08:54.200Z,9.51
2023-11-01T10:09:54.186Z,9.56
2023-11-01T10:10:54.301Z,9.56
2023-11-01T10:11:54.359Z,9.56
2023-11-01T10:12:54.417Z,9.51
2023-11-01T10:13:54.503Z,9.56
2023-11-01T10:14:54.626Z,9.51
2023-11-01T10:15:54.663Z,9.51
2023-11-01T10:16:54.750Z,9.45
2023-11-01T10:17:54.794Z,9.51
2023-11-01T10:18:54.929Z,9.51
2023-11-01T10:19:55.933Z,9.51
2023-11-01T10:20:55.158Z,9.51
2023-11-01T10:21:55.132Z,9.51
2023-11-01T10:22:55.254Z,9.45
2023-11-01T10:23:55.354Z,9.29
2023-11-01T10:24:55.911Z,9.51
2023-11-01T10:25:55.428Z,9.51
2023-11-01T10:26:55.611Z,9.56
2023-11-01T10:27:55.541Z,9.56
2023-11-01T10:28:55.763Z,9.51
2023-11-01T10:29:55.849Z,9.51
2023-11-01T10:30:55.831Z,9.51
2023-11-01T10:31:55.897Z,9.45
2023-11-01T10:32:56.376Z,9.51
2023-11-01T10:33:56.188Z,9.51
2023-11-01T10:34:56.141Z,9.51
2023-11-01T10:35:56.398Z,9.56
2023-11-01T10:36:56.326Z,9.51
2023-11-01T10:37:56.429Z,9.29
2023-11-01T10:38:56.508Z,9.51
2023-11-01T10:39:56.543Z,9.35
2023-11-01T10:40:56.664Z,9.29
2023-11-01T10:41:56.757Z,9.35
2023-11-01T10:42:58.414Z,9.35
2023-11-01T10:43:56.948Z,9.29
2023-11-01T10:44:56.968Z,9.29
2023-11-01T10:45:57.089Z,9.29
2023-11-01T10:46:57.118Z,9.35
2023-11-01T10:47:57.428Z,9.35
2023-11-01T10:48:57.576Z,9.35
2023-11-01T10:49:57.362Z,9.29
2023-11-01T10:50:57.560Z,9.29
2023-11-01T10:51:57.513Z,9.35
2023-11-01T10:52:57.598Z,9.67
2023-11-01T10:53:57.881Z,9.35
2023-11-01T10:54:57.938Z,9.35
2023-11-01T10:55:57.973Z,9.29
2023-11-01T10:56:57.947Z,9.29
2023-11-01T10:57:58.133Z,9.29
2023-11-01T10:58:58.104Z,9.29
2023-11-01T10:59:58.425Z,9.35
2023-11-01T11:00:58.346Z,9.35
2023-11-01T11:01:58.390Z,9.29
2023-11-01T11:02:58.596Z,9.35
2023-11-01T11:03:58.654Z,9.35
2023-11-01T11:04:58.689Z,9.24
2023-11-01T11:05:58.690Z,9.29
2023-11-01T11:06:58.924Z,9.29
2023-11-01T11:07:58.915Z,9.51
2023-11-01T11:08:59.022Z,9.40
2023-11-01T11:09:59.024Z,9.29
2023-11-01T11:10:59.128Z,9.35
2023-11-01T11:11:59.202Z,9.35
2023-11-01T11:12:59.288Z,9.29
2023-11-01T11:13:59.473Z,9.29
2023-11-01T11:14:59.566Z,9.29
2023-11-01T11:15:59.650Z,9.35
2023-11-01T11:16:59.644Z,9.29
2023-11-01T11:17:59.713Z,9.29
2023-11-01T11:19:00.146Z,9.35
2023-11-01T11:19:59.840Z,9.35
2023-11-01T11:21:00.105Z,9.35
2023-11-01T11:22:00.036Z,9.29
2023-11-01T11:23:00.093Z,9.29
2023-11-01T11:24:00.288Z,9.35
2023-11-01T11:25:00.351Z,9.29
2023-11-01T11:26:00.359Z,9.29
2023-11-01T11:27:00.470Z,9.35
2023-11-01T11:28:00.503Z,9.13
2023-11-01T11:29:00.576Z,9.13
2023-11-01T11:30:00.709Z,9.13
2023-11-01T11:31:01.432Z,9.08
2023-11-01T11:32:01.042Z,9.13
2023-11-01T11:33:01.150Z,9.18
2023-11-01T11:34:01.778Z,9.13
2023-11-01T11:35:01.054Z,9.08
2023-11-01T11:36:01.168Z,9.13
2023-11-01T11:37:01.187Z,9.13
2023-11-01T11:38:01.337Z,9.13
2023-11-01T11:39:01.396Z,9.13
2023-11-01T11:40:02.140Z,9.08
2023-11-01T11:41:01.763Z,9.08
2023-11-01T11:42:02.726Z,9.13
2023-11-01T11:43:02.049Z,9.13
2023-11-01T11:44:01.869Z,9.08
2023-11-01T11:45:01.935Z,9.08
2023-11-01T11:46:01.974Z,9.08
2023-11-01T11:47:02.108Z,9.08
2023-11-01T11:48:04.294Z,9.18
2023-11-01T11:49:02.224Z,9.13
2023-11-01T11:50:02.283Z,9.13
2023-11-01T11:51:03.102Z,9.29
2023-11-01T11:52:02.528Z,9.13
2023-11-01T11:53:02.561Z,9.13
2023-11-01T11:54:02.689Z,9.13
2023-11-01T11:55:02.709Z,9.13
2023-11-01T11:56:02.767Z,9.13
2023-11-01T11:57:02.932Z,9.13
2023-11-01T11:58:02.907Z,9.13
2023-11-01T11:59:03.008Z,9.08
2023-11-01T12:00:03.088Z,9.13
2023-11-01T12:01:03.156Z,9.02
2023-11-01T12:02:03.237Z,9.13
2023-11-01T12:03:03.517Z,9.13
2023-11-01T12:04:03.439Z,9.24
2023-11-01T12:05:03.525Z,9.18
2023-11-01T12:06:04.539Z,9.02
2023-11-01T12:07:03.638Z,9.35
2023-11-01T12:08:03.761Z,9.35
2023-11-01T12:09:03.847Z,9.29
2023-11-01T12:10:04.503Z,9.18
2023-11-01T12:11:03.933Z,9.29
2023-11-01T12:12:04.022Z,9.35
2023-11-01T12:13:04.125Z,9.35
2023-11-01T12:14:04.188Z,9.35
2023-11-01T12:15:04.306Z,9.29
2023-11-01T12:16:04.392Z,9.13
2023-11-01T12:17:04.441Z,9.13
2023-11-01T12:18:04.605Z,9.40
2023-11-01T12:19:05.443Z,9.13
2023-11-01T12:20:04.730Z,9.13
2023-11-01T12:21:04.738Z,9.13
2023-11-01T12:22:05.686Z,9.13
2023-11-01T12:23:04.875Z,9.35
2023-11-01T12:24:05.362Z,9.13
2023-11-01T12:25:05.101Z,9.35
2023-11-01T12:26:05.254Z,9.08
2023-11-01T12:27:05.341Z,9.29
2023-11-01T12:28:05.330Z,9.29
2023-11-01T12:29:05.481Z,9.13
2023-11-01T12:30:05.546Z,9.13
2023-11-01T12:31:05.614Z,9.13
2023-11-01T12:32:05.612Z,9.13
2023-11-01T12:33:05.827Z,9.13
2023-11-01T12:34:05.941Z,9.13
2023-11-01T12:35:06.415Z,9.02
2023-11-01T12:36:06.018Z,9.13
2023-11-01T12:37:06.126Z,9.13
2023-11-01T12:38:06.103Z,9.13
2023-11-01T12:39:07.402Z,9.13
2023-11-01T12:40:06.435Z,9.18
2023-11-01T12:41:07.178Z,9.13
2023-11-01T12:42:06.606Z,9.08
2023-11-01T12:43:07.067Z,9.08
2023-11-01T12:44:07.679Z,9.13
2023-11-01T12:45:06.871Z,9.13
2023-11-01T12:46:07.130Z,9.08
2023-11-01T12:47:06.955Z,9.13
2023-11-01T12:48:07.071Z,9.08
2023-11-01T12:49:07.037Z,9.08
2023-11-01T12:50:07.101Z,9.13
2023-11-01T12:51:07.196Z,9.13
2023-11-01T12:52:07.249Z,9.13
2023-11-01T12:53:07.398Z,9.24
2023-11-01T12:54:07.799Z,9.02
2023-11-01T12:55:07.524Z,9.13
2023-11-01T12:56:07.548Z,9.13
2023-11-01T12:57:07.721Z,9.02
2023-11-01T12:58:07.788Z,9.13
2023-11-01T12:59:07.788Z,9.13
2023-11-01T13:00:07.987Z,9.13
2023-11-01T13:01:08.029Z,9.13
2023-11-01T13:02:08.026Z,9.13
2023-11-01T13:03:08.282Z,9.18
2023-11-01T13:04:08.302Z,9.08
2023-11-01T13:05:08.873Z,9.13
2023-11-01T13:06:10.289Z,9.13
2023-11-01T13:07:08.498Z,9.13
2023-11-01T13:08:09.978Z,9.18
2023-11-01T13:09:08.663Z,9.13
2023-11-01T13:10:08.675Z,9.13
2023-11-01T13:11:08.807Z,9.08
2023-11-01T13:12:08.862Z,9.13
2023-11-01T13:13:08.904Z,9.18
2023-11-01T13:14:08.979Z,9.08
2023-11-01T13:15:09.116Z,9.18
2023-11-01T13:16:09.223Z,9.13
2023-11-01T13:17:09.536Z,9.13
2023-11-01T13:18:09.330Z,8.97
2023-11-01T13:19:09.369Z,9.13
2023-11-01T13:20:09.465Z,9.13
2023-11-01T13:21:10.211Z,9.18
2023-11-01T13:22:09.754Z,9.08